KALI/ALI METAR and TAF weather

Enter ICAO airport designator
Station Type Date Time Source
KALI METAR 2020/03/29 11:53 UTC NOAA

KALI 291153Z AUTO 03007KT 10SM BKN060 19/10 A3003 RMK AO2 SLP166 T01890100 10222 20189 53015


Station Type Date Time Source
KALI Decoded METAR 2020/03/29 11:53 UTC NOAA

ALICE INTERNATIONAL AIRPORT, TX, United States (KALI) 27-44N 098-01W 53M
Mar 29, 2020 - 07:53 AM EDT / 2020.03.29 1153 UTC
Wind: from the NNE (030 degrees) at 8 MPH (7 KT):0
Visibility: 10 mile(s):0
Sky conditions: mostly cloudy
Temperature: 66.0 F (18.9 C)
Dew Point: 50.0 F (10.0 C)
Relative Humidity: 56%
Pressure (altimeter): 30.03 in. Hg (1016 hPa)
Pressure tendency: 0.04 inches (1.5 hPa) higher than three hours ago
ob: KALI 291153Z AUTO 03007KT 10SM BKN060 19/10 A3003 RMK AO2 SLP166 T01890100 10222 20189 53015
cycle: 12

Station Type Date Time Source
KALI TAF 2020/03/29 12:45 UTC NOAA

TAF KALI 291142Z 2912/3012 02008KT P6SM BKN060 OVC200
FM291800 07011KT P6SM BKN040 OVC200
FM300100 06005KT P6SM BKN025
TEMPO 3007/3011 BKN009

Example: see airport list